createdAt,value
2022-11-13T00:01:16.809Z,18.40
2022-11-13T00:03:44.073Z,16.48
2022-11-13T00:06:12.478Z,18.10
2022-11-13T00:08:39.484Z,19.63
2022-11-13T00:11:11.676Z,17.92
2022-11-13T00:13:39.241Z,17.30
2022-11-13T00:16:10.593Z,17.45
2022-11-13T00:18:38.136Z,16.98
2022-11-13T00:21:07.158Z,18.85
2022-11-13T00:23:35.762Z,17.92
2022-11-13T00:26:18.078Z,14.98
2022-11-13T00:28:45.745Z,13.95
2022-11-13T00:31:15.571Z,14.60
2022-11-13T00:34:09.045Z,13.23
2022-11-13T00:36:30.080Z,15.02
2022-11-13T00:38:57.171Z,12.55
2022-11-13T00:41:24.736Z,13.73
2022-11-13T00:43:52.501Z,15.60
2022-11-13T00:46:19.934Z,16.70
2022-11-13T00:48:47.354Z,17.42
2022-11-13T00:51:14.718Z,15.80
2022-11-13T00:53:41.759Z,17.38
2022-11-13T00:56:08.935Z,18.90
2022-11-13T00:58:35.948Z,19.10
2022-11-13T01:01:18.785Z,19.20
2022-11-13T01:03:45.868Z,18.67
2022-11-13T01:06:21.564Z,19.98
2022-11-13T01:08:49.596Z,19.88
2022-11-13T01:11:22.346Z,20.00
2022-11-13T01:13:50.632Z,20.00
2022-11-13T01:16:21.133Z,21.23
2022-11-13T01:18:48.865Z,18.65
2022-11-13T01:21:20.931Z,21.08
2022-11-13T01:23:48.146Z,18.58
2022-11-13T01:26:19.198Z,18.63
2022-11-13T01:28:46.565Z,19.40
2022-11-13T01:31:21.143Z,17.92
2022-11-13T01:33:49.501Z,18.80
2022-11-13T01:36:27.870Z,20.63
2022-11-13T01:38:55.687Z,20.98
2022-11-13T01:41:28.962Z,21.55
2022-11-13T01:43:57.122Z,24.42
2022-11-13T01:46:43.665Z,25.58
2022-11-13T01:49:10.576Z,25.35
2022-11-13T01:51:42.784Z,25.70
2022-11-13T01:54:19.503Z,26.92
2022-11-13T01:56:47.407Z,27.35
2022-11-13T01:59:22.217Z,26.98
2022-11-13T02:01:49.997Z,28.02
2022-11-13T02:04:17.098Z,26.77
2022-11-13T02:06:54.522Z,27.80
2022-11-13T02:09:26.407Z,25.85
2022-11-13T02:11:55.038Z,26.88
2022-11-13T02:14:26.621Z,29.55
2022-11-13T02:16:58.901Z,27.48
2022-11-13T02:19:34.690Z,27.05
2022-11-13T02:22:17.848Z,26.35
2022-11-13T02:24:49.871Z,25.75
2022-11-13T02:27:36.679Z,25.27
2022-11-13T02:30:26.777Z,23.60
2022-11-13T02:32:56.005Z,24.98
2022-11-13T02:35:27.445Z,23.70
2022-11-13T02:37:56.487Z,26.50
2022-11-13T02:40:24.910Z,23.55
2022-11-13T02:42:51.857Z,23.88
2022-11-13T02:45:18.988Z,23.98
2022-11-13T02:47:46.330Z,24.48
2022-11-13T02:50:14.214Z,23.60
2022-11-13T02:52:41.490Z,22.85
2022-11-13T02:55:09.057Z,23.95
2022-11-13T02:57:36.345Z,21.67
2022-11-13T03:00:07.972Z,23.48
2022-11-13T03:02:39.718Z,23.13
2022-11-13T03:05:14.368Z,24.00
2022-11-13T03:07:42.413Z,22.23
2022-11-13T03:10:11.173Z,24.70
2022-11-13T03:12:38.707Z,21.58
2022-11-13T03:15:07.528Z,23.27
2022-11-13T03:17:35.308Z,25.00
2022-11-13T03:20:02.375Z,22.77
2022-11-13T03:22:29.409Z,24.75
2022-11-13T03:24:56.405Z,25.63
2022-11-13T03:27:23.373Z,24.92
2022-11-13T03:29:50.325Z,24.55
2022-11-13T03:32:17.389Z,25.17
2022-11-13T03:34:44.393Z,24.30
2022-11-13T03:37:11.377Z,22.73
2022-11-13T03:39:38.402Z,24.85
2022-11-13T03:42:05.419Z,25.40
2022-11-13T03:44:32.346Z,24.48
2022-11-13T03:46:59.371Z,26.58
2022-11-13T03:49:26.374Z,24.38
2022-11-13T03:51:53.360Z,25.05
2022-11-13T03:54:20.285Z,26.60
2022-11-13T03:56:47.286Z,25.27
2022-11-13T03:59:14.284Z,24.45
2022-11-13T04:01:41.268Z,24.65
2022-11-13T04:04:08.408Z,25.38
2022-11-13T04:06:35.399Z,25.27
2022-11-13T04:09:02.379Z,25.80
2022-11-13T04:11:29.358Z,25.90
2022-11-13T04:13:56.335Z,25.95
2022-11-13T04:16:23.253Z,24.85
2022-11-13T04:18:50.273Z,24.92
2022-11-13T04:21:17.273Z,26.70
2022-11-13T04:23:44.230Z,25.55
2022-11-13T04:26:11.244Z,25.38
2022-11-13T04:28:38.185Z,27.02
2022-11-13T04:31:05.211Z,26.10
2022-11-13T04:33:32.215Z,25.85
2022-11-13T04:35:59.185Z,24.35
2022-11-13T04:38:26.351Z,26.33
2022-11-13T04:41:13.729Z,24.40
2022-11-13T04:43:40.802Z,25.98
2022-11-13T04:46:08.499Z,26.60
2022-11-13T04:48:35.426Z,27.50
2022-11-13T04:51:02.416Z,25.42
2022-11-13T04:53:29.364Z,24.67
2022-11-13T04:55:56.353Z,24.98
2022-11-13T04:58:23.334Z,26.40
2022-11-13T05:00:50.279Z,26.98
2022-11-13T05:03:17.271Z,27.15
2022-11-13T05:05:44.255Z,25.30
2022-11-13T05:08:11.288Z,24.33
2022-11-13T05:10:38.370Z,25.35
2022-11-13T05:13:05.322Z,26.55
2022-11-13T05:15:32.312Z,26.85
2022-11-13T05:17:59.315Z,25.67
2022-11-13T05:20:26.340Z,26.27
2022-11-13T05:22:53.485Z,26.38
2022-11-13T05:25:20.483Z,26.02
2022-11-13T05:27:47.405Z,24.90
2022-11-13T05:30:14.558Z,25.33
2022-11-13T05:32:41.511Z,23.35
2022-11-13T05:35:08.990Z,24.33
2022-11-13T05:37:36.181Z,24.02
2022-11-13T05:40:03.262Z,25.17
2022-11-13T05:42:30.258Z,24.90
2022-11-13T05:44:57.376Z,25.50
2022-11-13T05:47:24.423Z,24.80
2022-11-13T05:49:51.422Z,25.30
2022-11-13T05:52:18.461Z,25.50
2022-11-13T05:54:45.464Z,26.10
2022-11-13T05:57:12.489Z,28.25
2022-11-13T05:59:39.648Z,26.63
2022-11-13T06:02:06.766Z,24.50
2022-11-13T06:04:33.996Z,26.52
2022-11-13T06:07:01.135Z,27.45
2022-11-13T06:09:28.236Z,25.85
2022-11-13T06:11:55.242Z,26.30
2022-11-13T06:14:22.242Z,24.40
2022-11-13T06:16:49.221Z,25.45
2022-11-13T06:19:16.241Z,26.35
2022-11-13T06:21:43.318Z,25.30
2022-11-13T06:24:12.782Z,24.80
2022-11-13T06:26:40.388Z,26.05
2022-11-13T06:29:10.124Z,25.40
2022-11-13T06:31:37.739Z,27.30
2022-11-13T06:34:05.937Z,24.42
2022-11-13T06:36:35.654Z,26.83
2022-11-13T06:39:05.709Z,27.63
2022-11-13T06:41:32.794Z,24.85
2022-11-13T06:44:03.105Z,24.00
2022-11-13T06:46:31.249Z,27.00
2022-11-13T06:48:58.901Z,25.90
2022-11-13T06:51:30.594Z,26.20
2022-11-13T06:53:58.636Z,26.35
2022-11-13T06:56:26.171Z,24.75
2022-11-13T06:58:56.039Z,26.48
2022-11-13T07:01:25.491Z,26.55
2022-11-13T07:03:53.321Z,27.40
2022-11-13T07:06:22.958Z,26.42
2022-11-13T07:08:50.633Z,25.42
2022-11-13T07:11:20.653Z,27.83
2022-11-13T07:13:48.493Z,24.85
2022-11-13T07:16:18.295Z,25.55
2022-11-13T07:18:54.108Z,24.95
2022-11-13T07:21:22.615Z,24.90
2022-11-13T07:23:50.944Z,26.02
2022-11-13T07:26:18.641Z,25.35
2022-11-13T07:28:46.230Z,24.55
2022-11-13T07:31:15.013Z,25.65
2022-11-13T07:33:42.072Z,24.50
2022-11-13T07:36:09.858Z,23.52
2022-11-13T07:38:37.490Z,25.73
2022-11-13T07:41:04.827Z,26.58
2022-11-13T07:43:31.842Z,24.05
2022-11-13T07:45:59.751Z,24.65
2022-11-13T07:48:30.125Z,24.70
2022-11-13T07:51:01.598Z,23.38
2022-11-13T07:53:28.674Z,25.27
2022-11-13T07:55:55.690Z,24.85
2022-11-13T07:58:22.681Z,24.65
2022-11-13T08:00:49.784Z,25.75
2022-11-13T08:03:18.065Z,25.02
2022-11-13T08:05:45.331Z,24.88
2022-11-13T08:08:13.800Z,24.63
2022-11-13T08:10:41.099Z,23.35
2022-11-13T08:13:11.024Z,25.02
2022-11-13T08:15:38.028Z,23.15
2022-11-13T08:18:05.431Z,23.75
2022-11-13T08:20:34.396Z,24.98
2022-11-13T08:23:03.305Z,23.90
2022-11-13T08:25:31.932Z,20.92
2022-11-13T08:27:59.582Z,21.42
2022-11-13T08:30:28.548Z,22.10
2022-11-13T08:32:56.002Z,24.67
2022-11-13T08:35:29.147Z,23.00
2022-11-13T08:38:06.112Z,20.85
2022-11-13T08:40:33.331Z,22.52
2022-11-13T08:43:01.826Z,20.92
2022-11-13T08:45:30.407Z,20.67
2022-11-13T08:48:04.692Z,20.70
2022-11-13T08:50:33.731Z,20.73
2022-11-13T08:53:02.090Z,20.73
2022-11-13T08:55:29.201Z,21.20
2022-11-13T08:58:00.296Z,22.13
2022-11-13T09:00:28.874Z,20.20
2022-11-13T09:02:57.618Z,20.75
2022-11-13T09:05:25.652Z,21.10
2022-11-13T09:07:56.174Z,20.35
2022-11-13T09:10:23.324Z,20.98
2022-11-13T09:12:55.310Z,20.13
2022-11-13T09:15:24.545Z,21.30
2022-11-13T09:17:52.493Z,21.70
2022-11-13T09:20:22.659Z,22.13
2022-11-13T09:23:00.680Z,20.83
2022-11-13T09:25:34.272Z,20.38
2022-11-13T09:28:05.866Z,22.25
2022-11-13T09:30:33.054Z,21.90
2022-11-13T09:33:01.243Z,21.00
2022-11-13T09:35:35.855Z,21.20
2022-11-13T09:38:11.093Z,21.23
2022-11-13T09:40:44.293Z,20.38
2022-11-13T09:43:32.698Z,20.23
2022-11-13T09:46:11.398Z,20.52
2022-11-13T09:48:44.185Z,19.88
2022-11-13T09:51:30.672Z,22.20
2022-11-13T09:53:59.389Z,19.02
2022-11-13T09:56:33.467Z,20.63
2022-11-13T09:59:22.648Z,21.52
2022-11-13T10:01:58.435Z,21.60
2022-11-13T10:04:42.362Z,19.77
2022-11-13T10:07:25.285Z,21.13
2022-11-13T10:10:01.726Z,21.20
2022-11-13T10:12:32.673Z,19.88
2022-11-13T10:15:03.739Z,22.83
2022-11-13T10:17:51.357Z,20.58
2022-11-13T10:20:39.067Z,19.65
2022-11-13T10:23:15.084Z,22.45
2022-11-13T10:25:44.046Z,21.67
2022-11-13T10:28:49.391Z,20.52
2022-11-13T10:31:14.152Z,21.75
2022-11-13T10:33:41.176Z,22.00
2022-11-13T10:36:45.757Z,21.55
2022-11-13T10:39:12.864Z,21.98
2022-11-13T10:41:48.729Z,22.83
2022-11-13T10:44:23.583Z,21.42
2022-11-13T10:46:50.674Z,21.00
2022-11-13T10:49:26.292Z,22.42
2022-11-13T10:51:58.214Z,20.80
2022-11-13T10:54:31.653Z,22.65
2022-11-13T10:57:05.238Z,21.40
2022-11-13T10:59:41.286Z,21.77
2022-11-13T11:02:23.733Z,19.70
2022-11-13T11:05:01.201Z,21.17
2022-11-13T11:07:28.330Z,20.17
2022-11-13T11:09:55.338Z,20.25
2022-11-13T11:12:30.869Z,20.55
2022-11-13T11:15:00.884Z,21.13
2022-11-13T11:17:38.155Z,21.85
2022-11-13T11:20:17.722Z,21.60
2022-11-13T11:22:46.523Z,20.40
2022-11-13T11:25:26.010Z,21.63
2022-11-13T11:28:01.720Z,20.55
2022-11-13T11:30:39.725Z,19.10
2022-11-13T11:33:15.572Z,21.48
2022-11-13T11:35:53.913Z,20.40
2022-11-13T11:38:40.622Z,20.88
2022-11-13T11:41:16.921Z,21.80
2022-11-13T11:43:47.891Z,19.60
2022-11-13T11:46:22.788Z,18.92
2022-11-13T11:48:50.949Z,20.27
2022-11-13T11:51:47.887Z,20.02
2022-11-13T11:55:10.453Z,18.67
2022-11-13T11:58:05.800Z,19.10
2022-11-13T12:00:34.783Z,19.15
2022-11-13T12:03:25.245Z,19.27
2022-11-13T12:06:15.943Z,19.08
2022-11-13T12:08:55.754Z,19.73
2022-11-13T12:11:28.113Z,18.38
2022-11-13T12:14:06.443Z,17.80
2022-11-13T12:16:41.525Z,17.67
2022-11-13T12:19:30.933Z,17.40
2022-11-13T12:22:10.622Z,17.13
2022-11-13T12:25:18.237Z,16.70
2022-11-13T12:27:53.498Z,16.70
2022-11-13T12:30:22.949Z,17.33
2022-11-13T12:33:06.959Z,18.10
2022-11-13T12:35:34.179Z,16.80
2022-11-13T12:38:36.714Z,16.70
2022-11-13T12:41:25.500Z,18.13
2022-11-13T12:44:14.031Z,17.48
2022-11-13T12:46:42.788Z,16.20
2022-11-13T12:49:28.700Z,17.98
2022-11-13T12:52:03.779Z,17.80
2022-11-13T12:54:36.343Z,16.65
2022-11-13T12:57:30.692Z,15.98
2022-11-13T13:00:11.109Z,16.52
2022-11-13T13:03:01.853Z,16.27
2022-11-13T13:05:37.547Z,14.93
2022-11-13T13:08:16.410Z,14.13
2022-11-13T13:11:09.884Z,15.48
2022-11-13T13:14:12.152Z,13.93
2022-11-13T13:16:39.327Z,13.23
2022-11-13T13:19:26.146Z,13.68
2022-11-13T13:21:53.145Z,14.60
2022-11-13T13:24:37.823Z,14.68
2022-11-13T13:27:26.577Z,16.45
2022-11-13T13:29:53.776Z,15.40
2022-11-13T13:32:32.940Z,16.40
2022-11-13T13:35:28.140Z,16.75
2022-11-13T13:38:12.964Z,16.65
2022-11-13T13:41:00.898Z,15.68
2022-11-13T13:43:51.781Z,15.90
2022-11-13T13:46:32.910Z,15.25
2022-11-13T13:49:09.626Z,14.90
2022-11-13T13:51:46.136Z,15.68
2022-11-13T13:54:20.820Z,16.05
2022-11-13T13:56:48.118Z,17.08
2022-11-13T13:59:19.836Z,17.38
2022-11-13T14:01:59.772Z,17.40
2022-11-13T14:04:29.617Z,16.92
2022-11-13T14:07:00.970Z,17.73
2022-11-13T14:09:30.071Z,18.92
2022-11-13T14:12:09.592Z,19.35
2022-11-13T14:14:40.033Z,18.83
2022-11-13T14:17:09.750Z,18.58
2022-11-13T14:19:37.276Z,19.20
2022-11-13T14:22:06.688Z,20.00
2022-11-13T14:24:57.008Z,18.25
2022-11-13T14:27:27.731Z,18.88
2022-11-13T14:30:01.148Z,19.75
2022-11-13T14:32:28.288Z,17.92
2022-11-13T14:35:00.161Z,20.67
2022-11-13T14:37:29.472Z,20.33
2022-11-13T14:39:59.990Z,18.85
2022-11-13T14:42:37.522Z,19.77
2022-11-13T14:45:31.818Z,20.95
2022-11-13T14:48:18.094Z,19.38
2022-11-13T14:51:06.285Z,19.45
2022-11-13T14:53:36.125Z,20.13
2022-11-13T14:56:12.015Z,21.98
2022-11-13T14:58:44.118Z,20.80
2022-11-13T15:01:18.967Z,21.25
2022-11-13T15:03:48.101Z,19.95
2022-11-13T15:06:22.452Z,20.92
2022-11-13T15:08:51.903Z,20.40
2022-11-13T15:11:20.783Z,21.02
2022-11-13T15:13:49.966Z,20.40
2022-11-13T15:16:26.657Z,20.10
2022-11-13T15:19:00.898Z,20.00
2022-11-13T15:21:30.696Z,19.85
2022-11-13T15:23:59.044Z,20.95
2022-11-13T15:26:27.905Z,20.52
2022-11-13T15:28:55.670Z,22.48
2022-11-13T15:31:31.269Z,20.27
2022-11-13T15:33:58.796Z,19.65
2022-11-13T15:36:26.434Z,20.15
2022-11-13T15:38:54.023Z,21.27
2022-11-13T15:41:23.789Z,22.60
2022-11-13T15:43:53.993Z,22.02
2022-11-13T15:46:42.928Z,20.05
2022-11-13T15:49:10.656Z,20.63
2022-11-13T15:51:44.787Z,21.45
2022-11-13T15:54:21.846Z,20.30
2022-11-13T15:56:49.521Z,22.10
2022-11-13T15:59:16.899Z,20.08
2022-11-13T16:01:44.448Z,20.13
2022-11-13T16:04:13.714Z,21.35
2022-11-13T16:06:42.050Z,19.75
2022-11-13T16:09:15.809Z,20.92
2022-11-13T16:11:43.949Z,23.90
2022-11-13T16:14:10.984Z,20.67
2022-11-13T16:16:41.284Z,21.65
2022-11-13T16:19:24.716Z,22.13
2022-11-13T16:21:53.520Z,21.35
2022-11-13T16:24:24.281Z,21.25
2022-11-13T16:26:58.496Z,22.85
2022-11-13T16:29:31.027Z,21.75
2022-11-13T16:31:58.437Z,18.63
2022-11-13T16:34:26.238Z,21.48
2022-11-13T16:36:54.237Z,20.25
2022-11-13T16:39:21.836Z,21.90
2022-11-13T16:41:49.338Z,20.70
2022-11-13T16:44:16.483Z,21.52
2022-11-13T16:46:46.098Z,21.98
2022-11-13T16:49:19.738Z,20.58
2022-11-13T16:51:47.301Z,21.65
2022-11-13T16:54:15.269Z,23.45
2022-11-13T16:56:42.784Z,20.25
2022-11-13T16:59:11.402Z,22.08
2022-11-13T17:01:39.333Z,21.35
2022-11-13T17:04:06.928Z,22.10
2022-11-13T17:06:36.501Z,22.38
2022-11-13T17:09:05.178Z,22.17
2022-11-13T17:11:33.716Z,19.75
2022-11-13T17:14:03.169Z,23.02
2022-11-13T17:16:32.335Z,22.73
2022-11-13T17:19:01.400Z,21.38
2022-11-13T17:21:30.549Z,22.63
2022-11-13T17:24:04.321Z,23.48
2022-11-13T17:26:31.726Z,22.08
2022-11-13T17:29:00.349Z,24.23
2022-11-13T17:31:28.288Z,23.50
2022-11-13T17:33:56.642Z,23.92
2022-11-13T17:36:24.596Z,23.05
2022-11-13T17:38:52.358Z,23.20
2022-11-13T17:41:23.698Z,23.95
2022-11-13T17:43:51.318Z,23.30
2022-11-13T17:46:19.782Z,24.35
2022-11-13T17:48:48.700Z,22.98
2022-11-13T17:51:16.604Z,23.05
2022-11-13T17:53:44.480Z,24.90
2022-11-13T17:56:14.480Z,22.95
2022-11-13T17:58:46.117Z,24.08
2022-11-13T18:01:21.625Z,23.35
2022-11-13T18:03:54.971Z,22.27
2022-11-13T18:06:23.202Z,23.42
2022-11-13T18:08:51.308Z,24.13
2022-11-13T18:11:27.184Z,23.73
2022-11-13T18:13:55.336Z,24.25
2022-11-13T18:16:30.803Z,23.05
2022-11-13T18:19:02.692Z,23.40
2022-11-13T18:21:33.415Z,23.48
2022-11-13T18:24:09.696Z,23.13
2022-11-13T18:26:37.816Z,21.90
2022-11-13T18:29:05.910Z,23.30
2022-11-13T18:31:33.627Z,22.95
2022-11-13T18:34:04.807Z,22.90
2022-11-13T18:36:35.211Z,23.02
2022-11-13T18:39:04.157Z,22.38
2022-11-13T18:41:33.896Z,21.13
2022-11-13T18:44:01.933Z,21.17
2022-11-13T18:46:30.672Z,23.90
2022-11-13T18:49:00.185Z,22.75
2022-11-13T18:51:32.453Z,21.52
2022-11-13T18:54:08.375Z,23.50
2022-11-13T18:56:42.455Z,22.38
2022-11-13T18:59:12.164Z,26.85
2022-11-13T19:01:42.804Z,22.33
2022-11-13T19:04:29.183Z,22.42
2022-11-13T19:06:57.605Z,24.10
2022-11-13T19:09:25.620Z,23.92
2022-11-13T19:11:55.045Z,22.48
2022-11-13T19:14:22.738Z,23.38
2022-11-13T19:16:50.538Z,21.58
2022-11-13T19:19:21.015Z,22.67
2022-11-13T19:21:49.512Z,24.10
2022-11-13T19:24:17.715Z,23.95
2022-11-13T19:26:46.149Z,24.35
2022-11-13T19:29:14.550Z,23.40
2022-11-13T19:31:43.055Z,24.55
2022-11-13T19:34:13.777Z,22.63
2022-11-13T19:36:41.771Z,24.83
2022-11-13T19:39:10.459Z,23.90
2022-11-13T19:41:38.498Z,21.58
2022-11-13T19:44:07.337Z,22.38
2022-11-13T19:46:36.687Z,23.85
2022-11-13T19:49:04.575Z,23.50
2022-11-13T19:51:32.617Z,24.83
2022-11-13T19:54:02.149Z,24.20
2022-11-13T19:56:29.766Z,23.20
2022-11-13T19:58:57.932Z,24.40
2022-11-13T20:01:27.973Z,23.08
2022-11-13T20:04:01.111Z,24.58
2022-11-13T20:06:32.047Z,24.35
2022-11-13T20:09:04.834Z,24.15
2022-11-13T20:11:33.338Z,23.08
2022-11-13T20:14:01.532Z,23.88
2022-11-13T20:16:29.173Z,23.08
2022-11-13T20:18:59.844Z,24.92
2022-11-13T20:21:31.614Z,24.30
2022-11-13T20:24:00.166Z,23.02
2022-11-13T20:26:28.578Z,25.25
2022-11-13T20:28:56.534Z,23.92
2022-11-13T20:31:26.353Z,25.55
2022-11-13T20:33:56.808Z,24.38
2022-11-13T20:36:25.304Z,22.75
2022-11-13T20:38:55.410Z,23.77
2022-11-13T20:41:24.902Z,21.95
2022-11-13T20:43:53.929Z,23.05
2022-11-13T20:46:22.745Z,21.85
2022-11-13T20:48:51.708Z,21.08
2022-11-13T20:51:26.304Z,21.95
2022-11-13T20:53:55.137Z,20.58
2022-11-13T20:56:24.675Z,22.23
2022-11-13T20:58:53.205Z,20.80
2022-11-13T21:01:23.810Z,19.17
2022-11-13T21:03:52.632Z,19.42
2022-11-13T21:06:22.968Z,20.70
2022-11-13T21:08:50.139Z,19.67
2022-11-13T21:11:22.537Z,19.40
2022-11-13T21:13:53.003Z,21.52
2022-11-13T21:16:20.993Z,20.23
2022-11-13T21:18:48.374Z,19.40
2022-11-13T21:21:21.269Z,20.65
2022-11-13T21:23:49.453Z,20.70
2022-11-13T21:26:17.437Z,20.08
2022-11-13T21:28:45.428Z,20.38
2022-11-13T21:31:20.389Z,21.95
2022-11-13T21:33:49.758Z,20.95
2022-11-13T21:36:19.630Z,22.02
2022-11-13T21:38:49.078Z,21.55
2022-11-13T21:41:22.351Z,20.90
2022-11-13T21:43:50.205Z,20.45
2022-11-13T21:46:18.252Z,23.23
2022-11-13T21:48:45.439Z,21.67
2022-11-13T21:51:12.671Z,19.90
2022-11-13T21:53:39.751Z,22.33
2022-11-13T21:56:11.243Z,21.88
2022-11-13T21:58:42.223Z,20.67
2022-11-13T22:01:11.370Z,21.25
2022-11-13T22:03:38.899Z,22.15
2022-11-13T22:06:17.172Z,22.23
2022-11-13T22:08:45.311Z,22.63
2022-11-13T22:11:13.117Z,22.60
2022-11-13T22:13:40.076Z,21.13
2022-11-13T22:16:09.947Z,22.40
2022-11-13T22:18:36.950Z,22.08
2022-11-13T22:21:09.265Z,22.88
2022-11-13T22:23:36.857Z,24.02
2022-11-13T22:26:12.778Z,23.05
2022-11-13T22:28:42.706Z,22.65
2022-11-13T22:31:16.298Z,23.77
2022-11-13T22:33:48.817Z,23.92
2022-11-13T22:36:20.519Z,22.60
2022-11-13T22:38:48.049Z,23.25
2022-11-13T22:41:24.194Z,22.33
2022-11-13T22:44:03.183Z,22.15
2022-11-13T22:46:32.069Z,22.33
2022-11-13T22:49:01.901Z,23.40
2022-11-13T22:51:35.287Z,24.55
2022-11-13T22:54:04.992Z,21.63
2022-11-13T22:56:33.681Z,24.70
2022-11-13T22:59:02.480Z,20.33
2022-11-13T23:01:32.208Z,24.83
2022-11-13T23:04:02.753Z,21.95
2022-11-13T23:06:32.349Z,21.63
2022-11-13T23:09:00.754Z,22.95
2022-11-13T23:11:29.367Z,24.30
2022-11-13T23:13:58.897Z,22.02
2022-11-13T23:16:28.688Z,22.10
2022-11-13T23:18:57.789Z,21.80
2022-11-13T23:21:27.976Z,21.02
2022-11-13T23:23:55.574Z,23.23
2022-11-13T23:26:23.957Z,21.70
2022-11-13T23:28:51.054Z,23.35
2022-11-13T23:31:18.477Z,21.20
2022-11-13T23:33:45.647Z,22.65
2022-11-13T23:36:14.644Z,22.65
2022-11-13T23:38:42.127Z,22.02
2022-11-13T23:41:10.308Z,21.85
2022-11-13T23:44:06.914Z,23.67
2022-11-13T23:46:24.394Z,20.95
2022-11-13T23:48:51.373Z,21.10
2022-11-13T23:51:18.387Z,21.92
2022-11-13T23:53:45.352Z,22.17
2022-11-13T23:56:12.706Z,22.58
2022-11-13T23:58:39.692Z,20.85
